Time;durP1;ratioP1;P1;durP2;ratioP2;P2;SDS_P1;SDS_P2;PMS_P1;PMS_P2;Temp;Humidity;BMP_temperature;BMP_pressure;BME280_temperature;BME280_humidity;BME280_pressure;Samples;Min_cycle;Max_cycle;Signal;HPM_P1;HPM_P2
2021/04/10 00:02:23;;;;;;;2.83;1.90;;;;;;;8.15;50.10;95222.25;5011281;28;20179;-71
2021/04/10 00:04:48;;;;;;;4.43;1.73;;;;;;;8.05;50.83;95218.06;5010980;28;20694;-71
2021/04/10 00:07:14;;;;;;;5.20;1.87;;;;;;;8.09;50.67;95233.16;5012449;28;20187;-71
2021/04/10 00:09:39;;;;;;;4.50;2.43;;;;;;;8.27;50.08;95222.06;5011220;28;20172;-71
2021/04/10 00:12:05;;;;;;;3.83;1.60;;;;;;;8.29;49.90;95227.91;5012301;28;20245;-70
2021/04/10 00:14:30;;;;;;;2.50;1.80;;;;;;;8.30;49.66;95226.97;5012010;28;20205;-71
2021/04/10 00:16:55;;;;;;;5.57;1.60;;;;;;;8.61;48.83;95222.38;5011911;28;20335;-71
2021/04/10 00:19:21;;;;;;;4.07;1.80;;;;;;;8.55;49.26;95217.78;5012238;28;20190;-71
2021/04/10 00:21:46;;;;;;;4.37;1.70;;;;;;;8.60;49.46;95218.97;5011021;28;20207;-71
2021/04/10 00:24:12;;;;;;;2.13;1.47;;;;;;;8.84;49.10;95228.81;5010862;28;20198;-70
2021/04/10 00:26:38;;;;;;;4.40;1.70;;;;;;;8.94;48.96;95218.41;5010736;28;20178;-71
2021/04/10 00:29:03;;;;;;;4.13;1.60;;;;;;;9.04;48.85;95214.78;5010710;28;20191;-70
2021/04/10 00:31:28;;;;;;;3.90;1.50;;;;;;;9.03;48.75;95222.72;5010799;28;20203;-71
2021/04/10 00:33:54;;;;;;;3.17;1.50;;;;;;;8.97;48.99;95211.16;5010777;28;20710;-70
2021/04/10 00:36:19;;;;;;;6.37;1.80;;;;;;;9.11;48.60;95220.22;5010448;28;20179;-71
2021/04/10 00:38:45;;;;;;;6.47;1.60;;;;;;;9.04;48.37;95227.75;5010633;28;20194;-70
2021/04/10 00:41:11;;;;;;;2.73;1.57;;;;;;;9.17;47.81;95216.19;5011995;28;20179;-70
2021/04/10 00:43:37;;;;;;;6.40;1.50;;;;;;;9.30;47.04;95227.03;4994059;28;20207;-71
2021/04/10 00:46:03;;;;;;;3.53;1.67;;;;;;;9.25;46.93;95219.69;5010395;28;20210;-71
2021/04/10 00:48:28;;;;;;;3.50;1.50;;;;;;;9.40;45.91;95222.59;5010630;28;20666;-70
2021/04/10 00:50:55;;;;;;;3.07;1.47;;;;;;;9.46;45.49;95228.97;5010505;28;20244;-70
2021/04/10 00:53:23;;;;;;;3.37;1.87;;;;;;;9.48;45.07;95214.06;5011611;28;20558;-70
2021/04/10 00:55:48;;;;;;;2.87;1.47;;;;;;;9.44;45.63;95220.50;5023907;28;20195;-71
2021/04/10 00:58:15;;;;;;;3.67;1.50;;;;;;;9.46;45.37;95221.19;5030238;28;20544;-71
2021/04/10 01:00:40;;;;;;;3.27;1.50;;;;;;;9.44;45.41;95215.31;5031519;28;20637;-70
2021/04/10 01:03:06;;;;;;;2.23;1.07;;;;;;;9.43;45.35;95218.88;5013577;28;20239;-71
2021/04/10 01:05:31;;;;;;;3.77;1.40;;;;;;;9.39;45.68;95214.97;5031209;28;20265;-71
2021/04/10 01:07:57;;;;;;;4.73;1.63;;;;;;;9.38;45.28;95215.94;5013524;28;20643;-70
2021/04/10 01:10:22;;;;;;;5.23;1.70;;;;;;;9.39;45.62;95212.38;5031317;28;20185;-70
2021/04/10 01:13:09;;;;;;;4.77;1.60;;;;;;;9.33;45.73;95209.41;5029975;28;20202;-71
2021/04/10 01:15:56;;;;;;;5.07;1.20;;;;;;;9.29;45.79;95202.91;5031042;28;20228;-71
2021/04/10 01:18:27;;;;;;;5.03;1.50;;;;;;;9.30;45.80;95203.72;5029779;28;20270;-71
2021/04/10 01:21:05;;;;;;;5.93;1.50;;;;;;;9.21;46.22;95197.63;5013595;28;20236;-71
2021/04/10 01:23:53;;;;;;;2.03;1.40;;;;;;;9.33;45.48;95208.59;5030270;28;20629;-71
2021/04/10 01:26:48;;;;;;;5.47;1.53;;;;;;;9.32;45.85;95212.13;5029779;28;20252;-71
2021/04/10 01:29:14;;;;;;;3.87;1.60;;;;;;;9.28;45.83;95221.19;4992278;28;20207;-71
2021/04/10 01:31:45;;;;;;;3.00;1.50;;;;;;;9.19;45.89;95222.88;4992597;28;20703;-71
2021/04/10 01:34:31;;;;;;;2.47;1.30;;;;;;;9.11;46.45;95222.00;4992558;28;20261;-71
2021/04/10 01:37:07;;;;;;;3.43;1.20;;;;;;;9.03;46.84;95222.72;5009036;28;20179;-71
2021/04/10 01:39:33;;;;;;;2.13;1.13;;;;;;;9.02;47.00;95226.25;4992634;28;20187;-71
2021/04/10 01:41:59;;;;;;;3.97;1.40;;;;;;;9.00;47.36;95213.44;4992726;28;20187;-71
2021/04/10 01:44:26;;;;;;;3.63;1.67;;;;;;;9.07;47.09;95208.50;4992471;28;20199;-71
2021/04/10 01:46:51;;;;;;;3.33;1.37;;;;;;;9.04;47.04;95207.03;4992762;28;20194;-71
2021/04/10 01:49:17;;;;;;;4.90;1.43;;;;;;;8.99;47.91;95203.22;4992488;28;20187;-71
2021/04/10 01:51:42;;;;;;;3.70;1.63;;;;;;;8.93;48.96;95193.47;4992331;28;20231;-71
2021/04/10 01:54:08;;;;;;;3.90;1.50;;;;;;;8.90;49.53;95196.34;5008810;28;20209;-70
2021/04/10 01:56:36;;;;;;;2.20;1.27;;;;;;;8.89;49.48;95194.72;4992329;28;20762;-71
2021/04/10 01:59:02;;;;;;;2.53;1.60;;;;;;;8.83;49.83;95192.69;4992485;28;20245;-70
2021/04/10 02:01:28;;;;;;;5.23;1.40;;;;;;;8.89;48.95;95200.69;4992518;28;20258;-71
2021/04/10 02:03:54;;;;;;;3.23;1.67;;;;;;;8.85;49.71;95193.38;4992469;28;20286;-71
2021/04/10 02:06:20;;;;;;;2.90;1.43;;;;;;;8.87;49.46;95197.44;5009201;28;20191;-70
2021/04/10 02:08:45;;;;;;;5.33;1.80;;;;;;;8.84;50.30;95189.16;5033226;28;20642;-70
2021/04/10 02:11:12;;;;;;;3.77;1.33;;;;;;;8.80;51.53;95197.22;5032198;28;20175;-70
2021/04/10 02:13:38;;;;;;;3.87;1.57;;;;;;;8.78;51.63;95193.94;5049690;28;20412;-71
2021/04/10 02:16:04;;;;;;;4.90;1.60;;;;;;;8.74;52.47;95196.97;5049405;28;20250;-71
2021/04/10 02:18:30;;;;;;;4.37;1.67;;;;;;;8.62;52.85;95193.75;5033640;28;20705;-70
2021/04/10 02:21:04;;;;;;;4.30;1.40;;;;;;;8.65;53.33;95193.47;5032966;28;20174;-71
2021/04/10 02:23:29;;;;;;;5.23;1.50;;;;;;;8.58;54.09;95182.09;5032834;28;20599;-71
2021/04/10 02:25:54;;;;;;;4.13;1.63;;;;;;;8.56;54.71;95191.75;5033920;28;20174;-70
2021/04/10 02:28:20;;;;;;;4.97;1.60;;;;;;;8.49;54.82;95182.94;5034088;28;20673;-71
2021/04/10 02:30:45;;;;;;;3.10;1.40;;;;;;;8.40;55.54;95182.03;5033839;28;20194;-70
2021/04/10 02:33:17;;;;;;;6.43;1.80;;;;;;;8.48;55.55;95191.66;5049045;28;20671;-71
2021/04/10 02:35:45;;;;;;;3.57;1.47;;;;;;;8.49;55.26;95188.94;5032656;28;20599;-70
2021/04/10 02:38:12;;;;;;;6.83;1.83;;;;;;;8.41;55.89;95183.66;5032605;28;20179;-70
2021/04/10 02:40:38;;;;;;;2.83;1.40;;;;;;;8.45;55.83;95186.75;5049286;28;20705;-70
2021/04/10 02:43:06;;;;;;;4.50;1.77;;;;;;;8.40;55.81;95183.81;5049187;28;20566;-71
2021/04/10 02:45:32;;;;;;;4.07;1.97;;;;;;;8.43;56.33;95188.69;5048764;28;20265;-70
2021/04/10 02:48:01;;;;;;;3.90;1.30;;;;;;;8.46;56.19;95198.75;5049072;28;20206;-70
2021/04/10 02:50:27;;;;;;;3.13;1.40;;;;;;;8.40;56.56;95199.34;5049086;28;20184;-70
2021/04/10 02:52:56;;;;;;;2.70;1.50;;;;;;;8.44;57.22;95204.06;5048968;28;20202;-70
2021/04/10 02:55:44;;;;;;;4.20;1.40;;;;;;;8.38;58.52;95201.22;5032004;28;20194;-71
2021/04/10 02:58:11;;;;;;;4.63;1.53;;;;;;;8.26;60.55;95197.97;5028576;28;20202;-70
2021/04/10 03:00:40;;;;;;;3.10;1.70;;;;;;;8.10;62.79;95203.75;5032250;28;20194;-70
2021/04/10 03:03:06;;;;;;;3.70;1.90;;;;;;;7.94;62.91;95199.16;5015598;28;20178;-70
2021/04/10 03:05:31;;;;;;;3.93;1.63;;;;;;;7.98;62.14;95185.97;5031835;28;20182;-70
2021/04/10 03:07:57;;;;;;;4.33;1.60;;;;;;;7.88;62.92;95197.16;5048721;28;20170;-71
2021/04/10 03:10:22;;;;;;;4.60;2.00;;;;;;;7.89;62.07;95192.78;5048652;28;20573;-71
2021/04/10 03:12:48;;;;;;;3.37;1.40;;;;;;;7.82;62.95;95196.88;5031787;28;20678;-71
2021/04/10 03:15:16;;;;;;;3.90;1.60;;;;;;;7.74;63.00;95192.41;5032782;28;20201;-70
2021/04/10 03:17:41;;;;;;;4.30;1.60;;;;;;;7.79;62.67;95186.81;5047846;28;20175;-70
2021/04/10 03:20:11;;;;;;;4.23;1.47;;;;;;;7.72;63.00;95186.56;5033128;28;20224;-70
2021/04/10 03:22:37;;;;;;;2.30;1.60;;;;;;;7.65;63.43;95183.72;5033005;28;20554;-71
2021/04/10 03:25:04;;;;;;;2.87;1.57;;;;;;;7.71;63.39;95194.47;5048109;28;20253;-70
2021/04/10 03:27:29;;;;;;;4.23;1.50;;;;;;;7.67;63.30;95204.25;5048365;28;20198;-70
2021/04/10 03:29:55;;;;;;;6.33;2.00;;;;;;;7.62;63.40;95204.66;5031570;28;20566;-70
2021/04/10 03:32:21;;;;;;;5.47;1.80;;;;;;;7.61;63.56;95205.63;5048101;28;20194;-70
2021/04/10 03:34:47;;;;;;;2.90;2.03;;;;;;;7.58;63.79;95205.06;5048066;28;20256;-70
2021/04/10 03:37:12;;;;;;;3.37;2.43;;;;;;;7.58;64.11;95202.47;5047998;28;20224;-70
2021/04/10 03:39:37;;;;;;;2.60;1.43;;;;;;;7.52;64.21;95203.06;5048000;28;20201;-70
2021/04/10 03:42:03;;;;;;;3.60;1.90;;;;;;;7.49;63.97;95217.03;5031303;28;20622;-70
2021/04/10 03:44:28;;;;;;;2.80;1.30;;;;;;;7.47;64.42;95202.63;5032247;28;20206;-70
2021/04/10 03:46:53;;;;;;;4.23;2.17;;;;;;;7.43;64.34;95209.84;5047936;28;20182;-70
2021/04/10 03:49:19;;;;;;;4.60;1.57;;;;;;;7.38;64.95;95217.19;5047897;28;20542;-70
2021/04/10 03:51:45;;;;;;;2.20;1.50;;;;;;;7.38;64.78;95217.19;5032319;28;20190;-70
2021/04/10 03:54:10;;;;;;;3.47;1.50;;;;;;;7.45;64.29;95220.03;5031079;28;20281;-70
2021/04/10 03:56:36;;;;;;;2.13;1.53;;;;;;;7.41;64.06;95216.09;5047584;28;20170;-70
2021/04/10 03:59:02;;;;;;;2.93;1.30;;;;;;;7.37;63.73;95225.88;5032372;28;20183;-70
2021/04/10 04:01:28;;;;;;;4.97;1.87;;;;;;;7.35;63.48;95225.22;5032293;28;20174;-71
2021/04/10 04:03:53;;;;;;;3.53;1.30;;;;;;;7.33;63.26;95221.94;5032196;28;20202;-70
2021/04/10 04:06:18;;;;;;;4.63;1.33;;;;;;;7.33;63.32;95219.34;5031930;28;20667;-70
2021/04/10 04:08:43;;;;;;;2.97;1.47;;;;;;;7.35;62.72;95238.13;5047531;28;20182;-70
2021/04/10 04:11:09;;;;;;;2.37;1.20;;;;;;;7.28;63.13;95224.94;5030743;28;20191;-71
2021/04/10 04:13:34;;;;;;;1.27;1.17;;;;;;;7.29;63.13;95223.16;5033877;28;20268;-71
2021/04/10 04:16:00;;;;;;;4.03;1.40;;;;;;;7.30;63.25;95219.63;5033313;28;20234;-71
2021/04/10 04:18:25;;;;;;;2.13;1.50;;;;;;;7.26;62.84;95228.59;5033000;28;20244;-70
2021/04/10 04:20:50;;;;;;;2.07;1.53;;;;;;;7.26;62.81;95220.88;5033114;28;20174;-70
2021/04/10 04:23:16;;;;;;;2.33;1.20;;;;;;;7.20;62.93;95226.56;5048281;28;20178;-71
2021/04/10 04:25:41;;;;;;;1.57;1.20;;;;;;;7.23;62.88;95231.44;5033019;28;20236;-71
2021/04/10 04:28:06;;;;;;;4.03;1.63;;;;;;;7.18;63.00;95237.03;5048287;28;20197;-71
2021/04/10 04:30:32;;;;;;;2.07;1.20;;;;;;;7.16;62.96;95251.84;5032456;28;20190;-70
2021/04/10 04:32:57;;;;;;;3.83;1.50;;;;;;;7.19;63.10;95245.59;5032273;28;20213;-70
2021/04/10 04:35:22;;;;;;;2.40;1.43;;;;;;;7.09;63.55;95246.38;5031981;28;20199;-70
2021/04/10 04:37:48;;;;;;;2.83;1.47;;;;;;;7.05;63.70;95250.16;5033243;28;20183;-70
2021/04/10 04:40:14;;;;;;;1.13;1.03;;;;;;;7.05;63.77;95252.75;5031740;28;20182;-71
2021/04/10 04:42:39;;;;;;;1.53;1.20;;;;;;;7.02;63.82;95260.78;5031399;28;20181;-70
2021/04/10 04:45:05;;;;;;;4.90;1.17;;;;;;;7.04;63.56;95260.63;5046921;28;20721;-70
2021/04/10 04:47:31;;;;;;;3.43;1.20;;;;;;;7.05;62.87;95260.50;5030493;28;20269;-70
2021/04/10 04:49:57;;;;;;;2.60;1.37;;;;;;;7.04;62.60;95258.06;5047090;28;20182;-70
2021/04/10 04:52:22;;;;;;;3.63;1.37;;;;;;;7.02;62.88;95267.72;5013807;28;20639;-70
2021/04/10 04:54:47;;;;;;;2.83;1.30;;;;;;;7.06;62.91;95266.47;5046571;28;20229;-70
2021/04/10 04:57:13;;;;;;;1.37;1.07;;;;;;;7.05;62.83;95264.84;5030254;28;20193;-70
2021/04/10 04:59:38;;;;;;;2.30;1.20;;;;;;;7.02;63.24;95268.53;5031590;28;20257;-70
2021/04/10 05:02:03;;;;;;;1.97;1.23;;;;;;;7.07;62.59;95265.56;5031541;28;20526;-70
2021/04/10 05:04:29;;;;;;;4.30;1.67;;;;;;;7.06;62.40;95264.72;5046339;28;20206;-70
2021/04/10 05:06:54;;;;;;;4.10;1.70;;;;;;;7.06;62.82;95275.03;5030283;28;20190;-70
2021/04/10 05:09:19;;;;;;;2.33;1.30;;;;;;;7.10;62.42;95276.41;5046906;28;20190;-70
2021/04/10 05:11:44;;;;;;;2.23;1.30;;;;;;;7.15;62.29;95281.19;5031279;28;20199;-71
2021/04/10 05:14:10;;;;;;;2.83;1.30;;;;;;;7.15;62.24;95280.34;5031421;28;20209;-70
2021/04/10 05:16:35;;;;;;;3.63;1.07;;;;;;;7.15;62.47;95288.09;5046170;28;20178;-70
2021/04/10 05:19:01;;;;;;;1.97;1.30;;;;;;;7.16;62.15;95287.19;5031373;28;20526;-70
2021/04/10 05:21:26;;;;;;;3.67;1.30;;;;;;;7.18;61.58;95293.84;5031340;28;20643;-70
2021/04/10 05:23:51;;;;;;;3.10;1.30;;;;;;;7.17;61.81;95296.56;5029960;28;20284;-70
2021/04/10 05:26:17;;;;;;;3.03;1.00;;;;;;;7.18;61.44;95300.78;5030952;28;20218;-70
2021/04/10 05:28:42;;;;;;;2.67;1.30;;;;;;;7.15;61.75;95303.59;5029904;28;20182;-70
2021/04/10 05:31:08;;;;;;;2.30;1.13;;;;;;;7.18;61.64;95305.94;5046499;28;20193;-70
2021/04/10 05:33:33;;;;;;;2.50;1.50;;;;;;;7.12;61.29;95309.03;5031114;28;20210;-70
2021/04/10 05:35:59;;;;;;;1.43;1.20;;;;;;;7.20;61.21;95322.09;5030980;28;20182;-70
2021/04/10 05:38:24;;;;;;;4.17;1.47;;;;;;;7.21;61.39;95308.25;5046622;28;20186;-70
2021/04/10 05:40:50;;;;;;;3.13;1.73;;;;;;;7.21;61.49;95316.81;5047266;28;20187;-70
2021/04/10 05:43:15;;;;;;;3.10;1.43;;;;;;;7.18;61.60;95316.28;5050527;28;20208;-71
2021/04/10 05:45:40;;;;;;;2.17;1.30;;;;;;;7.22;61.81;95315.03;5049971;28;20179;-71
2021/04/10 05:48:06;;;;;;;4.67;1.30;;;;;;;7.30;60.85;95320.34;5033697;28;20241;-70
2021/04/10 05:50:32;;;;;;;2.47;1.50;;;;;;;7.26;60.69;95321.59;5033589;28;20550;-70
2021/04/10 05:52:57;;;;;;;4.33;1.03;;;;;;;7.30;60.91;95328.09;5033526;28;20209;-70
2021/04/10 05:55:22;;;;;;;4.17;1.30;;;;;;;7.29;60.79;95326.47;5034401;28;20554;-70
2021/04/10 05:57:48;;;;;;;2.00;1.17;;;;;;;7.27;60.93;95324.03;5050127;28;20197;-70
2021/04/10 06:00:13;;;;;;;2.73;1.50;;;;;;;7.33;60.94;95327.84;5034549;28;20182;-70
2021/04/10 06:02:39;;;;;;;4.07;1.30;;;;;;;7.44;59.82;95337.25;5033391;28;20269;-70
2021/04/10 06:05:05;;;;;;;2.57;1.37;;;;;;;7.31;60.59;95340.88;5016389;28;20203;-71
2021/04/10 06:07:31;;;;;;;2.77;1.23;;;;;;;7.29;60.81;95340.22;5034509;28;20193;-70
2021/04/10 06:09:56;;;;;;;2.70;1.40;;;;;;;7.36;60.62;95338.75;5033214;28;20554;-70
2021/04/10 06:12:21;;;;;;;2.00;1.40;;;;;;;7.34;60.44;95345.00;5049791;28;20202;-70
2021/04/10 06:14:47;;;;;;;4.03;1.47;;;;;;;7.33;60.21;95349.34;5049278;28;20248;-70
2021/04/10 06:17:12;;;;;;;4.73;1.57;;;;;;;7.33;60.86;95353.66;5049306;28;20181;-71
2021/04/10 06:19:37;;;;;;;2.63;1.40;;;;;;;7.32;60.66;95349.44;5049649;28;20848;-70
2021/04/10 06:22:03;;;;;;;5.03;1.40;;;;;;;7.31;60.93;95360.75;5034101;28;20185;-71
2021/04/10 06:24:28;;;;;;;2.23;1.60;;;;;;;7.29;60.91;95354.88;5033790;28;20233;-70
2021/04/10 06:26:53;;;;;;;1.67;1.10;;;;;;;7.31;60.92;95358.97;5034090;28;20186;-70
2021/04/10 06:29:19;;;;;;;2.57;1.40;;;;;;;7.30;61.33;95357.34;5049229;28;20186;-70
2021/04/10 06:31:44;;;;;;;1.90;1.17;;;;;;;7.31;61.10;95356.38;5013943;28;20231;-70
2021/04/10 06:34:09;;;;;;;3.87;1.40;;;;;;;7.36;61.29;95364.56;5014073;28;20195;-70
2021/04/10 06:36:35;;;;;;;2.60;1.30;;;;;;;7.41;61.12;95369.31;5012502;28;20191;-70
2021/04/10 06:39:01;;;;;;;5.73;1.30;;;;;;;7.40;61.32;95359.94;5012904;28;20179;-70
2021/04/10 06:41:27;;;;;;;4.63;1.23;;;;;;;7.42;61.48;95368.41;5012730;28;20183;-71
2021/04/10 06:43:52;;;;;;;1.80;1.07;;;;;;;7.39;61.86;95366.88;5012794;28;20284;-70
2021/04/10 06:46:18;;;;;;;3.90;1.23;;;;;;;7.37;61.98;95371.38;5012542;28;20637;-70
2021/04/10 06:48:45;;;;;;;4.57;1.30;;;;;;;7.31;62.64;95374.47;5012510;28;20187;-70
2021/04/10 06:51:12;;;;;;;3.57;1.30;;;;;;;7.34;62.53;95376.81;5012631;28;20182;-70
2021/04/10 06:53:41;;;;;;;4.00;1.73;;;;;;;7.31;62.63;95376.22;5011544;28;20587;-70
2021/04/10 06:56:08;;;;;;;1.73;1.23;;;;;;;7.36;62.74;95380.06;5028887;28;20179;-70
2021/04/10 06:59:20;;;;;;;1.70;1.30;;;;;;;7.34;62.70;95381.16;5012499;28;20198;-70
2021/04/10 07:01:45;;;;;;;1.97;1.20;;;;;;;7.38;62.91;95378.16;4996727;28;20780;-70
2021/04/10 07:04:11;;;;;;;2.30;1.40;;;;;;;7.40;62.91;95372.84;5012414;28;20278;-70
2021/04/10 07:06:39;;;;;;;4.87;1.33;;;;;;;7.40;62.61;95375.44;5012143;28;20667;-71
2021/04/10 07:09:05;;;;;;;1.80;1.20;;;;;;;7.41;62.54;95386.59;5012197;28;20580;-70
2021/04/10 07:11:32;;;;;;;1.80;1.40;;;;;;;7.36;62.76;95384.41;5028573;28;20222;-70
2021/04/10 07:13:57;;;;;;;4.70;1.30;;;;;;;7.42;62.43;95388.22;5013232;28;20286;-71
2021/04/10 07:16:23;;;;;;;2.13;1.27;;;;;;;7.37;63.04;95392.03;5011800;28;20270;-71
2021/04/10 07:18:48;;;;;;;3.53;1.50;;;;;;;7.42;62.42;95381.31;5013302;28;20677;-70
2021/04/10 07:21:21;;;;;;;2.97;1.30;;;;;;;7.35;62.84;95387.97;5011937;28;20178;-70
2021/04/10 07:23:52;;;;;;;2.47;1.30;;;;;;;7.34;62.86;95384.56;5012058;28;20200;-70
2021/04/10 07:26:38;;;;;;;3.53;1.30;;;;;;;7.41;62.51;95389.19;5011835;28;20171;-71
2021/04/10 07:29:04;;;;;;;3.90;1.57;;;;;;;7.46;62.93;95379.28;5012897;28;20187;-71
2021/04/10 07:31:32;;;;;;;2.43;1.40;;;;;;;7.42;62.97;95383.06;5011799;28;20183;-70
2021/04/10 07:33:58;;;;;;;1.60;1.20;;;;;;;7.40;62.95;95390.94;5011692;28;20698;-70
2021/04/10 07:36:24;;;;;;;2.60;1.13;;;;;;;7.50;62.68;95385.78;5011511;28;20806;-70
2021/04/10 07:38:56;;;;;;;3.07;2.03;;;;;;;7.50;62.99;95385.78;5011928;28;20184;-70
2021/04/10 07:41:22;;;;;;;2.70;1.57;;;;;;;7.70;62.21;95391.84;5011646;28;20651;-71
2021/04/10 07:43:47;;;;;;;3.50;1.70;;;;;;;7.77;62.37;95398.91;5011561;28;20210;-72
2021/04/10 07:46:21;;;;;;;2.17;1.30;;;;;;;7.75;62.39;95400.00;5012537;28;20179;-71
2021/04/10 07:48:59;;;;;;;1.60;1.50;;;;;;;7.71;62.05;95399.47;4995091;28;20212;-71
2021/04/10 07:51:24;;;;;;;3.40;1.93;;;;;;;7.76;62.31;95401.63;5014738;28;20182;-74
2021/04/10 07:53:49;;;;;;;2.40;1.67;;;;;;;7.84;62.29;95406.94;5030628;28;20747;-73
2021/04/10 07:56:15;;;;;;;3.30;1.50;;;;;;;7.98;61.77;95408.34;5030806;28;20612;-72
2021/04/10 07:58:40;;;;;;;2.63;1.23;;;;;;;8.00;61.88;95415.00;5014534;28;20238;-73
2021/04/10 08:01:08;;;;;;;3.10;1.40;;;;;;;7.99;62.09;95415.97;5031205;28;20175;-72
2021/04/10 08:03:44;;;;;;;1.57;1.07;;;;;;;7.88;62.13;95414.31;5014443;28;20252;-73
2021/04/10 08:06:09;;;;;;;3.23;1.10;;;;;;;7.89;62.12;95412.53;5030711;28;20173;-72
2021/04/10 08:08:55;;;;;;;1.53;1.20;;;;;;;7.84;62.13;95417.28;5032232;28;20198;-71
2021/04/10 08:11:41;;;;;;;3.00;1.20;;;;;;;7.97;62.09;95415.28;5032197;28;20277;-73
2021/04/10 08:14:07;;;;;;;2.47;1.10;;;;;;;8.03;61.99;95414.72;5031145;28;20274;-73
2021/04/10 08:16:41;;;;;;;2.07;1.23;;;;;;;8.21;61.92;95418.25;5031978;28;20549;-74
2021/04/10 08:19:06;;;;;;;3.20;1.20;;;;;;;8.42;61.37;95417.34;5032458;28;20608;-74
2021/04/10 08:21:32;;;;;;;2.10;1.20;;;;;;;8.46;61.34;95426.47;5030952;28;20257;-76
2021/04/10 08:24:16;;;;;;;1.10;0.90;;;;;;;8.30;60.94;95428.75;5016744;28;20209;-76
2021/04/10 08:26:41;;;;;;;1.37;1.00;;;;;;;8.23;60.94;95426.72;5013166;28;20203;-76
2021/04/10 08:29:07;;;;;;;2.97;1.50;;;;;;;8.51;60.77;95425.09;5010712;28;20227;-75
2021/04/10 08:31:32;;;;;;;1.80;1.20;;;;;;;8.64;60.67;95424.00;5014951;28;20211;-74
2021/04/10 08:33:57;;;;;;;3.80;1.80;;;;;;;8.93;60.43;95421.38;5022290;28;20210;-73
2021/04/10 08:36:24;;;;;;;2.60;1.77;;;;;;;8.83;59.74;95426.53;5027909;28;20210;-73
2021/04/10 08:38:51;;;;;;;4.13;1.63;;;;;;;8.87;59.72;95429.69;5025231;28;20591;-76
2021/04/10 08:41:16;;;;;;;1.80;1.00;;;;;;;9.04;59.55;95431.56;5032545;28;20178;-76
2021/04/10 08:43:50;;;;;;;2.20;1.33;;;;;;;9.25;59.26;95424.38;5025724;28;20257;-76
2021/04/10 08:46:19;;;;;;;2.20;1.63;;;;;;;9.46;58.52;95429.34;5027484;28;20183;-77
2021/04/10 08:48:48;;;;;;;3.80;1.60;;;;;;;9.63;57.89;95431.19;5032817;28;20179;-77
2021/04/10 08:51:15;;;;;;;4.30;1.03;;;;;;;9.75;57.51;95429.19;5031386;28;20183;-75
2021/04/10 08:53:45;;;;;;;4.10;1.10;;;;;;;9.92;57.21;95422.41;5034665;28;20308;-78
2021/04/10 08:56:11;;;;;;;1.17;0.90;;;;;;;9.97;56.90;95430.56;5037545;28;20217;-81
2021/04/10 08:58:40;;;;;;;3.73;2.47;;;;;;;10.13;56.58;95433.31;5024509;28;20201;-79
2021/04/10 09:01:22;;;;;;;4.53;2.50;;;;;;;9.92;57.19;95427.59;5035721;28;20185;-78
2021/04/10 09:03:48;;;;;;;4.80;4.40;;;;;;;10.14;56.74;95431.53;5034506;28;20305;-80
2021/04/10 09:06:37;;;;;;;7.00;5.13;;;;;;;10.21;55.97;95422.19;5038732;28;20578;-80
2021/04/10 09:09:26;;;;;;;5.40;4.40;;;;;;;10.36;55.89;95425.94;5036009;28;20194;-80
2021/04/10 09:12:17;;;;;;;2.90;1.27;;;;;;;10.55;55.59;95432.75;5019457;28;20207;-79
2021/04/10 09:14:44;;;;;;;41.47;35.27;;;;;;;10.99;54.57;95422.34;5014142;28;20671;-82
2021/04/10 09:17:09;;;;;;;15.90;10.93;;;;;;;11.10;53.66;95436.88;4999153;28;20305;-82
2021/04/10 09:19:35;;;;;;;15.43;13.20;;;;;;;11.27;53.34;95425.59;5016190;28;20257;-83
2021/04/10 09:22:01;;;;;;;4.40;2.23;;;;;;;11.43;53.01;95430.06;5016242;28;20171;-82
2021/04/10 09:24:39;;;;;;;1.47;1.20;;;;;;;11.68;52.72;95423.19;5017277;28;20249;-81
2021/04/10 09:27:24;;;;;;;2.70;1.20;;;;;;;11.18;52.82;95421.31;5016535;28;20179;-80
2021/04/10 09:30:04;;;;;;;3.33;1.80;;;;;;;11.13;52.88;95415.75;5019988;28;20560;-80
2021/04/10 09:32:32;;;;;;;2.20;1.50;;;;;;;11.03;53.10;95427.06;5021262;28;20301;-82
2021/04/10 09:34:59;;;;;;;4.30;1.27;;;;;;;11.12;52.73;95414.94;5033825;28;20191;-81
2021/04/10 09:37:24;;;;;;;3.40;1.30;;;;;;;10.59;55.33;95422.88;5017024;28;20186;-80
2021/04/10 09:40:09;;;;;;;1.43;1.27;;;;;;;11.01;54.12;95426.41;5016114;28;20180;-79
2021/04/10 09:42:38;;;;;;;3.87;1.63;;;;;;;11.06;54.34;95426.78;5016311;28;20179;-80
2021/04/10 09:45:05;;;;;;;4.47;2.40;;;;;;;10.98;54.18;95426.75;5016573;28;20226;-78
2021/04/10 09:48:00;;;;;;;5.67;2.43;;;;;;;10.97;54.46;95426.91;5016303;28;20179;-80
2021/04/10 09:50:26;;;;;;;1.97;1.50;;;;;;;11.10;54.45;95421.28;5016262;28;20246;-80
2021/04/10 09:53:05;;;;;;;1.73;1.30;;;;;;;11.20;53.97;95420.19;5031927;28;20203;-80
2021/04/10 09:55:33;;;;;;;2.37;1.30;;;;;;;11.41;53.53;95432.81;5019018;28;20671;-83
2021/04/10 09:58:00;;;;;;;2.67;2.07;;;;;;;11.44;53.71;95422.09;5017175;28;20185;-81
2021/04/10 10:00:34;;;;;;;4.80;1.60;;;;;;;11.27;53.85;95429.00;5001524;28;20243;-81
2021/04/10 10:03:02;;;;;;;7.97;5.20;;;;;;;11.25;52.79;95427.53;5032941;28;20171;-80
2021/04/10 10:05:33;;;;;;;3.50;1.20;;;;;;;11.02;53.88;95435.84;5016082;28;20556;-80
2021/04/10 10:08:08;;;;;;;2.10;1.70;;;;;;;11.01;54.38;95433.41;5019322;28;20557;-80
2021/04/10 10:10:47;;;;;;;2.00;1.40;;;;;;;10.95;54.17;95432.22;5018906;28;20669;-82
2021/04/10 10:13:18;;;;;;;1.87;1.27;;;;;;;11.00;54.31;95430.00;5017247;28;20222;-80
2021/04/10 10:15:44;;;;;;;1.37;0.67;;;;;;;10.78;54.56;95425.31;5033844;28;20226;-82
2021/04/10 10:18:21;;;;;;;3.53;1.50;;;;;;;10.81;55.22;95426.78;5017797;28;20179;-81
2021/04/10 10:20:56;;;;;;;3.17;1.03;;;;;;;10.79;55.23;95419.16;5001982;28;20189;-81
2021/04/10 10:23:30;;;;;;;1.13;1.00;;;;;;;10.91;54.93;95415.31;5018838;28;20191;-82
2021/04/10 10:26:23;;;;;;;2.30;1.30;;;;;;;10.88;55.23;95427.81;5002386;28;20178;-81
2021/04/10 10:28:57;;;;;;;1.93;1.30;;;;;;;11.05;54.54;95424.34;5022768;28;20195;-82
2021/04/10 10:31:24;;;;;;;3.17;1.40;;;;;;;11.18;54.20;95416.13;5018111;28;20190;-81
2021/04/10 10:33:50;;;;;;;4.77;1.10;;;;;;;11.31;53.65;95411.34;5032882;28;20195;-80
2021/04/10 10:36:18;;;;;;;2.80;1.00;;;;;;;11.29;52.54;95408.06;5032195;28;20176;-81
2021/04/10 10:38:46;;;;;;;2.07;1.20;;;;;;;11.31;52.91;95411.34;5036639;28;20175;-82
2021/04/10 10:41:13;;;;;;;5.70;1.80;;;;;;;11.43;52.58;95410.06;5002602;28;20182;-80
2021/04/10 10:43:39;;;;;;;3.70;1.47;;;;;;;11.37;52.27;95407.28;5028112;28;20580;-82
2021/04/10 10:46:06;;;;;;;2.60;1.03;;;;;;;11.55;52.19;95413.19;5036086;28;20175;-83
2021/04/10 10:48:37;;;;;;;2.93;0.93;;;;;;;11.80;52.42;95411.53;5000180;28;20203;-82
2021/04/10 10:51:08;;;;;;;3.87;1.20;;;;;;;11.54;52.51;95407.19;5033126;28;20233;-81
2021/04/10 10:53:39;;;;;;;1.63;1.03;;;;;;;11.56;51.77;95400.03;5017008;28;20210;-81
2021/04/10 10:56:18;;;;;;;1.17;0.90;;;;;;;11.52;51.68;95400.53;5036026;28;20183;-82
2021/04/10 10:58:47;;;;;;;1.10;0.80;;;;;;;11.48;52.29;95399.19;5033773;28;20175;-82
2021/04/10 11:01:26;;;;;;;1.97;0.80;;;;;;;11.62;52.17;95402.03;5018885;28;20179;-82
2021/04/10 11:04:03;;;;;;;2.43;0.97;;;;;;;11.25;52.13;95401.53;5031816;28;20218;-81
2021/04/10 11:06:31;;;;;;;1.47;1.07;;;;;;;11.39;52.41;95395.75;5016612;28;20257;-80
2021/04/10 11:09:03;;;;;;;2.20;0.90;;;;;;;11.65;51.26;95393.06;5015766;28;20186;-80
2021/04/10 11:11:34;;;;;;;1.10;0.77;;;;;;;11.67;50.87;95390.34;5032307;28;20549;-82
2021/04/10 11:13:59;;;;;;;1.80;0.73;;;;;;;11.64;50.84;95394.06;5031867;28;20250;-81
2021/04/10 11:16:25;;;;;;;1.50;0.90;;;;;;;11.73;51.19;95402.69;5015664;28;20174;-81
2021/04/10 11:18:55;;;;;;;1.37;0.70;;;;;;;11.64;50.90;95388.84;5032148;28;20647;-80
2021/04/10 11:21:29;;;;;;;1.27;0.60;;;;;;;11.53;50.40;95387.34;5032011;28;20179;-82
2021/04/10 11:23:58;;;;;;;1.10;0.77;;;;;;;11.55;50.55;95385.41;5015203;28;20203;-80
2021/04/10 11:26:51;;;;;;;1.10;0.80;;;;;;;11.41;50.77;95385.22;5017058;28;20561;-81
2021/04/10 11:29:28;;;;;;;2.10;1.00;;;;;;;11.38;51.41;95393.31;5015081;28;20248;-82
2021/04/10 11:32:15;;;;;;;1.00;1.00;;;;;;;11.10;52.81;95377.91;5016363;28;20252;-82
2021/04/10 11:34:53;;;;;;;2.57;1.50;;;;;;;10.93;53.62;95377.00;5015552;28;20187;-81
2021/04/10 11:37:38;;;;;;;2.57;0.90;;;;;;;10.97;53.64;95378.34;4999956;28;20171;-81
2021/04/10 11:40:15;;;;;;;3.60;1.47;;;;;;;10.95;53.62;95377.66;5016116;28;20729;-81
2021/04/10 11:42:47;;;;;;;6.43;1.50;;;;;;;11.00;53.71;95372.81;5016057;28;20175;-80
2021/04/10 11:45:23;;;;;;;5.87;3.50;;;;;;;11.01;53.75;95373.63;5033439;28;20199;-80
2021/04/10 11:47:48;;;;;;;5.63;4.53;;;;;;;11.07;53.29;95371.25;5035137;28;20256;-82